Time;durP1;ratioP1;P1;durP2;ratioP2;P2;SDS_P1;SDS_P2;PMS_P1;PMS_P2;Temp;Humidity;BMP_temperature;BMP_pressure;BME280_temperature;BME280_humidity;BME280_pressure;Samples;Min_cycle;Max_cycle;Signal;HPM_P1;HPM_P2
2024/02/15 00:00:17;;;;;;;18.92;4.30;;;;;;;10.11;100.00;101708.72;5051551;28;20033;-78
2024/02/15 00:02:46;;;;;;;18.60;4.22;;;;;;;10.11;100.00;101705.22;5053427;28;20086;-79
2024/02/15 00:05:12;;;;;;;17.70;3.75;;;;;;;10.09;100.00;101702.69;5052335;28;20041;-78
2024/02/15 00:07:38;;;;;;;12.02;4.10;;;;;;;10.07;100.00;101702.75;5052625;28;20455;-78
2024/02/15 00:10:04;;;;;;;14.02;3.65;;;;;;;10.06;100.00;101698.44;5051142;28;20074;-77
2024/02/15 00:12:30;;;;;;;19.63;4.15;;;;;;;10.10;100.00;101708.84;5052368;28;20040;-78
2024/02/15 00:14:58;;;;;;;11.35;3.65;;;;;;;10.07;100.00;101699.25;5052313;28;20037;-77
2024/02/15 00:17:24;;;;;;;14.35;3.92;;;;;;;10.05;100.00;101703.84;5052459;28;20047;-79
2024/02/15 00:19:50;;;;;;;14.50;4.70;;;;;;;10.03;100.00;101703.09;5053036;28;20053;-77
2024/02/15 00:22:15;;;;;;;10.60;3.70;;;;;;;10.05;100.00;101702.03;5052889;28;20107;-78
2024/02/15 00:24:42;;;;;;;18.00;4.47;;;;;;;10.05;100.00;101695.88;5050892;28;20029;-78
2024/02/15 00:27:08;;;;;;;15.15;4.53;;;;;;;10.06;100.00;101700.22;5052217;28;20037;-78
2024/02/15 00:29:34;;;;;;;23.17;4.70;;;;;;;10.06;100.00;101700.22;5052380;28;20040;-78
2024/02/15 00:32:00;;;;;;;14.98;4.53;;;;;;;10.02;100.00;101688.97;5050607;28;20049;-78
2024/02/15 00:34:26;;;;;;;21.10;4.85;;;;;;;10.02;100.00;101693.44;5051113;28;20033;-77
2024/02/15 00:36:52;;;;;;;12.52;4.47;;;;;;;10.05;100.00;101693.22;5052563;28;20033;-77
2024/02/15 00:39:18;;;;;;;12.77;4.13;;;;;;;10.09;100.00;101692.03;5050688;28;20398;-78
2024/02/15 00:41:45;;;;;;;10.80;4.88;;;;;;;10.10;100.00;101691.06;5052141;28;20035;-78
2024/02/15 00:44:10;;;;;;;10.18;4.60;;;;;;;10.07;100.00;101686.81;5051610;28;20064;-78
2024/02/15 00:46:37;;;;;;;13.93;4.65;;;;;;;10.03;100.00;101688.03;5052292;28;20497;-78
2024/02/15 00:49:04;;;;;;;12.40;5.07;;;;;;;9.98;100.00;101692.81;5051873;28;20410;-78
2024/02/15 00:51:29;;;;;;;15.25;5.80;;;;;;;9.93;100.00;101683.47;5051705;28;20041;-77
2024/02/15 00:53:55;;;;;;;16.42;5.40;;;;;;;9.89;100.00;101680.22;5051838;28;20029;-77
2024/02/15 00:56:22;;;;;;;17.70;5.68;;;;;;;9.88;100.00;101687.34;5052017;28;20117;-77
2024/02/15 00:58:47;;;;;;;18.60;6.05;;;;;;;9.91;100.00;101686.25;5052086;28;20056;-78
2024/02/15 01:01:12;;;;;;;27.77;8.10;;;;;;;10.01;100.00;101683.78;5051146;28;20033;-77
2024/02/15 01:03:38;;;;;;;33.65;8.27;;;;;;;10.07;100.00;101688.63;5052048;28;20033;-77
2024/02/15 01:06:05;;;;;;;18.20;8.23;;;;;;;10.15;100.00;101682.72;5051659;28;20589;-77
2024/02/15 01:08:30;;;;;;;16.95;7.75;;;;;;;10.18;100.00;101682.50;5054086;28;20044;-77
2024/02/15 01:10:56;;;;;;;21.70;8.10;;;;;;;10.20;100.00;101672.59;5058128;28;20025;-78
2024/02/15 01:13:21;;;;;;;18.95;8.50;;;;;;;10.21;100.00;101674.28;5057245;28;20033;-77
2024/02/15 01:15:47;;;;;;;18.63;8.13;;;;;;;10.17;100.00;101667.53;5057098;28;20040;-76
2024/02/15 01:18:12;;;;;;;17.45;8.10;;;;;;;10.18;100.00;101674.50;5058243;28;20029;-77
2024/02/15 01:20:38;;;;;;;23.25;8.80;;;;;;;10.17;100.00;101671.03;5057680;28;20028;-76
2024/02/15 01:23:04;;;;;;;17.90;7.75;;;;;;;10.13;100.00;101661.56;5058030;28;20500;-77
2024/02/15 01:25:30;;;;;;;22.38;8.55;;;;;;;10.10;100.00;101661.81;5056968;28;20033;-77
2024/02/15 01:27:55;;;;;;;17.17;8.82;;;;;;;10.09;100.00;101659.25;5056535;28;20139;-77
2024/02/15 01:30:21;;;;;;;19.85;8.25;;;;;;;10.10;100.00;101656.47;5056882;28;20033;-77
2024/02/15 01:32:46;;;;;;;17.23;8.35;;;;;;;10.11;100.00;101662.66;5058264;28;20147;-76
2024/02/15 01:35:12;;;;;;;19.23;7.90;;;;;;;10.13;100.00;101658.06;5058445;28;20056;-76
2024/02/15 01:37:37;;;;;;;20.75;8.32;;;;;;;10.15;100.00;101661.44;5040561;28;20029;-78
2024/02/15 01:40:06;;;;;;;18.33;7.90;;;;;;;10.10;100.00;101653.00;5058076;28;20123;-77
2024/02/15 01:42:32;;;;;;;18.50;7.65;;;;;;;10.07;100.00;101657.56;5058482;28;20512;-78
2024/02/15 01:44:57;;;;;;;18.30;8.25;;;;;;;10.05;100.00;101654.19;5057363;28;20029;-78
2024/02/15 01:47:22;;;;;;;13.80;7.70;;;;;;;10.01;100.00;101650.03;5057980;28;20068;-77
2024/02/15 01:49:49;;;;;;;19.10;7.47;;;;;;;9.98;100.00;101644.13;5057728;28;20052;-77
2024/02/15 01:52:17;;;;;;;16.83;7.68;;;;;;;10.01;100.00;101633.25;5058209;28;20041;-78
2024/02/15 01:54:42;;;;;;;15.13;7.10;;;;;;;9.98;100.00;101636.97;5056203;28;20079;-77
2024/02/15 01:57:08;;;;;;;16.70;6.55;;;;;;;9.96;100.00;101633.59;5058187;28;20431;-77
2024/02/15 01:59:33;;;;;;;19.83;7.95;;;;;;;9.93;100.00;101633.84;5057766;28;20577;-78
2024/02/15 02:01:59;;;;;;;22.92;7.15;;;;;;;9.88;100.00;101630.66;5056371;28;20120;-78
2024/02/15 02:04:24;;;;;;;27.75;8.05;;;;;;;9.85;100.00;101637.06;5057559;28;20029;-78
2024/02/15 02:06:50;;;;;;;17.98;6.55;;;;;;;9.80;100.00;101628.59;5057853;28;20029;-78
2024/02/15 02:09:16;;;;;;;16.30;7.25;;;;;;;9.84;100.00;101635.38;5057701;28;20393;-78
2024/02/15 02:11:44;;;;;;;17.00;6.93;;;;;;;9.87;100.00;101624.50;5057626;28;20060;-78
2024/02/15 02:14:11;;;;;;;24.65;7.60;;;;;;;9.93;100.00;101638.28;5058358;28;20416;-78
2024/02/15 02:16:38;;;;;;;21.60;7.13;;;;;;;9.97;100.00;101631.78;5057866;28;20106;-78
2024/02/15 02:19:07;;;;;;;17.83;6.03;;;;;;;9.97;100.00;101637.97;5057719;28;20064;-78
2024/02/15 02:21:35;;;;;;;16.35;5.75;;;;;;;10.03;100.00;101637.50;5053550;28;20045;-81
2024/02/15 02:24:07;;;;;;;13.23;5.93;;;;;;;10.07;100.00;101633.63;5053460;28;20103;-82
2024/02/15 02:26:34;;;;;;;18.80;6.55;;;;;;;10.07;100.00;101625.66;5053937;28;20120;-81
2024/02/15 02:28:59;;;;;;;17.70;6.13;;;;;;;10.11;100.00;101617.47;5053220;28;20055;-82
2024/02/15 02:31:25;;;;;;;20.75;5.65;;;;;;;10.11;100.00;101620.97;5052742;28;20409;-82
2024/02/15 02:33:54;;;;;;;21.25;5.40;;;;;;;10.12;100.00;101620.00;5052815;28;20121;-82
2024/02/15 02:36:20;;;;;;;17.08;5.70;;;;;;;10.19;100.00;101615.88;5052611;28;20036;-83
2024/02/15 02:38:45;;;;;;;17.95;5.55;;;;;;;10.23;100.00;101616.50;5052872;28;20132;-82
2024/02/15 02:41:12;;;;;;;13.25;4.80;;;;;;;10.27;100.00;101614.47;5051483;28;20079;-82
2024/02/15 02:43:41;;;;;;;14.43;5.50;;;;;;;10.28;100.00;101629.47;5034934;28;20112;-83
2024/02/15 02:46:11;;;;;;;12.75;4.40;;;;;;;10.28;100.00;101626.81;5052760;28;20029;-82
2024/02/15 02:48:39;;;;;;;10.70;4.15;;;;;;;10.24;100.00;101620.88;5052902;28;20036;-81
2024/02/15 02:51:07;;;;;;;20.70;4.88;;;;;;;10.25;100.00;101611.91;5052639;28;20045;-81
2024/02/15 02:53:32;;;;;;;16.23;5.22;;;;;;;10.27;100.00;101612.66;5052700;28;20029;-81
2024/02/15 02:55:57;;;;;;;25.70;4.75;;;;;;;10.29;100.00;101616.03;5052468;28;20099;-81
2024/02/15 02:58:23;;;;;;;12.23;4.55;;;;;;;10.32;100.00;101612.31;5051186;28;20029;-81
2024/02/15 03:00:49;;;;;;;9.73;4.60;;;;;;;10.31;100.00;101607.94;5052563;28;20033;-80
2024/02/15 03:03:15;;;;;;;12.68;4.03;;;;;;;10.33;100.00;101621.97;5052190;28;20128;-81
2024/02/15 03:05:41;;;;;;;15.25;4.85;;;;;;;10.31;100.00;101610.59;5052464;28;20178;-82
2024/02/15 03:08:08;;;;;;;17.20;4.38;;;;;;;10.29;100.00;101615.22;5050944;28;20040;-79
2024/02/15 03:10:34;;;;;;;16.83;4.57;;;;;;;10.25;100.00;101614.56;5052382;28;20064;-82
2024/02/15 03:12:59;;;;;;;13.63;4.60;;;;;;;10.26;100.00;101613.63;5052072;28;20083;-81
2024/02/15 03:15:24;;;;;;;17.48;4.70;;;;;;;10.28;100.00;101614.34;5051075;28;20033;-81
2024/02/15 03:17:51;;;;;;;15.18;4.43;;;;;;;10.29;100.00;101604.56;5050839;28;20044;-81
2024/02/15 03:20:26;;;;;;;17.00;5.05;;;;;;;10.32;100.00;101604.31;5051640;28;20036;-80
2024/02/15 03:22:55;;;;;;;13.02;5.13;;;;;;;10.32;100.00;101607.00;5052105;28;20041;-81
2024/02/15 03:25:24;;;;;;;11.05;5.13;;;;;;;10.30;100.00;101600.91;5051907;28;20040;-81
2024/02/15 03:27:51;;;;;;;15.82;5.72;;;;;;;10.27;100.00;101599.38;5052762;28;20048;-82
2024/02/15 03:30:19;;;;;;;14.80;5.50;;;;;;;10.27;100.00;101606.47;5052505;28;20151;-82
2024/02/15 03:32:45;;;;;;;20.58;6.63;;;;;;;10.23;100.00;101605.88;5052425;28;20077;-82
2024/02/15 03:35:14;;;;;;;15.93;6.57;;;;;;;10.23;100.00;101616.50;5050555;28;20067;-79
2024/02/15 03:37:39;;;;;;;13.07;6.25;;;;;;;10.20;100.00;101614.94;5052565;28;20150;-82
2024/02/15 03:40:05;;;;;;;14.90;6.80;;;;;;;10.15;100.00;101609.13;5052437;28;20435;-83
2024/02/15 03:42:31;;;;;;;20.35;7.00;;;;;;;10.13;100.00;101600.41;5052008;28;20033;-82
2024/02/15 03:44:56;;;;;;;12.13;6.95;;;;;;;10.10;100.00;101590.00;5051704;28;20043;-83
2024/02/15 03:47:22;;;;;;;15.52;7.10;;;;;;;10.09;100.00;101591.00;5051636;28;20029;-83
2024/02/15 03:49:47;;;;;;;17.90;7.32;;;;;;;10.08;100.00;101586.63;5051890;28;20029;-83
2024/02/15 03:52:12;;;;;;;15.02;7.55;;;;;;;10.09;100.00;101585.69;5051629;28;20119;-79
2024/02/15 03:54:38;;;;;;;12.68;7.07;;;;;;;10.08;100.00;101589.28;5052096;28;20045;-82
2024/02/15 03:57:06;;;;;;;13.60;7.85;;;;;;;10.06;100.00;101585.88;5051448;28;20053;-82
2024/02/15 03:59:32;;;;;;;22.40;9.00;;;;;;;10.05;100.00;101585.03;5051785;28;20108;-81
2024/02/15 04:01:57;;;;;;;19.88;8.93;;;;;;;10.06;100.00;101583.22;5051909;28;20025;-82
2024/02/15 04:04:23;;;;;;;15.07;9.18;;;;;;;10.06;100.00;101591.19;5051573;28;20036;-83
2024/02/15 04:06:51;;;;;;;18.65;9.68;;;;;;;10.05;100.00;101585.03;5050248;28;20033;-82
2024/02/15 04:09:17;;;;;;;21.80;11.63;;;;;;;10.06;100.00;101581.44;5050907;28;20029;-84
2024/02/15 04:11:46;;;;;;;27.80;15.60;;;;;;;10.10;100.00;101578.53;5050419;28;20033;-85
2024/02/15 04:14:12;;;;;;;32.78;16.02;;;;;;;10.10;100.00;101576.72;5051644;28;20128;-85
2024/02/15 04:16:37;;;;;;;31.73;18.08;;;;;;;10.12;100.00;101581.91;5051518;28;20159;-85
2024/02/15 04:19:04;;;;;;;28.23;18.08;;;;;;;10.09;100.00;101585.69;5052337;28;20037;-84
2024/02/15 04:21:30;;;;;;;31.98;17.75;;;;;;;10.10;100.00;101590.00;5051797;28;20044;-85
2024/02/15 04:23:56;;;;;;;32.10;17.88;;;;;;;10.08;100.00;101589.28;5051547;28;20463;-84
2024/02/15 04:26:21;;;;;;;30.17;17.35;;;;;;;10.09;100.00;101583.00;5051583;28;20058;-85
2024/02/15 04:28:52;;;;;;;26.42;16.67;;;;;;;10.09;100.00;101582.16;5051444;28;20391;-85
2024/02/15 04:31:18;;;;;;;26.45;16.67;;;;;;;10.10;100.00;101591.84;5050393;28;20061;-84
2024/02/15 04:33:43;;;;;;;27.48;16.77;;;;;;;10.09;100.00;101596.31;5051824;28;20090;-84
2024/02/15 04:36:08;;;;;;;28.38;16.10;;;;;;;10.12;100.00;101600.53;5051772;28;20037;-83
2024/02/15 04:38:34;;;;;;;25.55;16.08;;;;;;;10.12;100.00;101597.88;5051518;28;20119;-84
2024/02/15 04:41:05;;;;;;;27.25;15.32;;;;;;;10.16;100.00;101605.50;5051417;28;20045;-85
2024/02/15 04:43:33;;;;;;;29.43;16.33;;;;;;;10.16;100.00;101599.34;5051317;28;20056;-84
2024/02/15 04:45:58;;;;;;;26.77;16.20;;;;;;;10.15;100.00;101593.19;5051402;28;20025;-85
2024/02/15 04:48:24;;;;;;;31.38;17.67;;;;;;;10.16;100.00;101583.38;5051253;28;20196;-85
2024/02/15 04:50:51;;;;;;;28.60;17.75;;;;;;;10.16;100.00;101581.56;5051432;28;20029;-86
2024/02/15 04:53:17;;;;;;;27.73;17.55;;;;;;;10.15;100.00;101565.72;5049882;28;20025;-86
2024/02/15 04:55:42;;;;;;;38.92;18.52;;;;;;;10.15;100.00;101563.06;5050056;28;20161;-85
2024/02/15 04:58:10;;;;;;;32.83;17.83;;;;;;;10.13;100.00;101559.69;5051696;28;20429;-86
2024/02/15 05:00:36;;;;;;;34.35;17.92;;;;;;;10.12;100.00;101556.19;5051453;28;20051;-85
2024/02/15 05:03:01;;;;;;;37.85;18.05;;;;;;;10.11;100.00;101533.22;5051397;28;20033;-86
2024/02/15 05:05:29;;;;;;;38.72;19.10;;;;;;;10.11;100.00;101540.34;5051638;28;20032;-85
2024/02/15 05:07:54;;;;;;;35.85;17.95;;;;;;;10.09;100.00;101545.78;5051621;28;20036;-85
2024/02/15 05:10:20;;;;;;;36.33;17.45;;;;;;;10.09;100.00;101545.78;5051945;28;20029;-85
2024/02/15 05:12:47;;;;;;;40.80;16.75;;;;;;;10.09;100.00;101544.91;5050694;28;20045;-86
2024/02/15 05:15:16;;;;;;;31.23;16.13;;;;;;;10.05;100.00;101544.31;5051463;28;20033;-86
2024/02/15 05:17:42;;;;;;;34.35;15.48;;;;;;;10.03;100.00;101548.91;5051232;28;20028;-87
2024/02/15 05:20:12;;;;;;;32.33;15.85;;;;;;;10.04;100.00;101548.78;5051051;28;20379;-87
2024/02/15 05:22:39;;;;;;;35.47;15.10;;;;;;;10.03;100.00;101546.22;5051207;28;20343;-86
2024/02/15 05:25:08;;;;;;;33.75;15.43;;;;;;;10.02;100.00;101548.06;5050919;28;20546;-87
2024/02/15 05:27:35;;;;;;;31.52;15.82;;;;;;;10.04;100.00;101542.63;5050506;28;20449;-86
2024/02/15 05:30:05;;;;;;;32.83;16.23;;;;;;;10.02;100.00;101537.44;5051231;28;20029;-87
2024/02/15 05:32:30;;;;;;;35.50;16.92;;;;;;;10.03;100.00;101541.78;5050904;28;20099;-86
2024/02/15 05:34:55;;;;;;;31.27;15.35;;;;;;;10.04;100.00;101540.81;5051736;28;20040;-87
2024/02/15 05:37:21;;;;;;;38.38;15.25;;;;;;;10.03;100.00;101539.13;5051461;28;20538;-87
2024/02/15 05:39:46;;;;;;;39.33;16.42;;;;;;;10.05;100.00;101539.84;5050911;28;20036;-87
2024/02/15 05:42:11;;;;;;;32.40;14.95;;;;;;;10.05;100.00;101533.69;5051473;28;20483;-86
2024/02/15 05:44:37;;;;;;;31.23;15.55;;;;;;;10.02;100.00;101540.09;5051247;28;20033;-87
2024/02/15 05:47:02;;;;;;;35.88;15.38;;;;;;;10.01;100.00;101530.41;5049864;28;20064;-86
2024/02/15 05:49:27;;;;;;;35.30;14.75;;;;;;;10.01;100.00;101529.56;5050718;28;20031;-86
2024/02/15 05:51:53;;;;;;;33.63;15.48;;;;;;;10.05;100.00;101528.38;5050683;28;20460;-86
2024/02/15 05:54:19;;;;;;;28.83;15.40;;;;;;;10.06;100.00;101530.91;5050837;28;20535;-85
2024/02/15 05:56:44;;;;;;;33.75;15.15;;;;;;;10.04;100.00;101527.50;5053243;28;20068;-86
2024/02/15 05:59:12;;;;;;;32.22;14.77;;;;;;;10.02;100.00;101524.13;5054467;28;20063;-88
2024/02/15 06:01:38;;;;;;;35.05;14.65;;;;;;;10.02;100.00;101529.44;5054805;28;20413;-86
2024/02/15 06:04:07;;;;;;;36.90;15.13;;;;;;;10.04;100.00;101527.50;5054470;28;20037;-87
2024/02/15 06:06:34;;;;;;;33.47;14.48;;;;;;;10.06;100.00;101524.72;5054191;28;20044;-86
2024/02/15 06:09:00;;;;;;;34.47;14.23;;;;;;;10.02;100.00;101520.63;5054225;28;20032;-85
2024/02/15 06:11:26;;;;;;;31.17;14.35;;;;;;;10.03;100.00;101517.84;5052927;28;20340;-85
2024/02/15 06:13:51;;;;;;;28.70;13.90;;;;;;;10.04;100.00;101519.53;5052599;28;20480;-86
2024/02/15 06:16:17;;;;;;;28.38;12.95;;;;;;;10.03;100.00;101514.34;5054221;28;20451;-86
2024/02/15 06:18:43;;;;;;;22.90;12.48;;;;;;;10.03;100.00;101512.53;5053469;28;20079;-87
2024/02/15 06:21:08;;;;;;;21.45;11.85;;;;;;;10.03;100.00;101519.66;5053875;28;20033;-87
2024/02/15 06:23:35;;;;;;;20.17;11.82;;;;;;;10.01;100.00;101517.13;5053851;28;20068;-80
2024/02/15 06:26:02;;;;;;;18.02;11.90;;;;;;;10.01;100.00;101525.09;5053839;28;20060;-87
2024/02/15 06:39:41;;;;;;;17.63;10.02;;;;;;;10.07;100.00;101545.88;5053024;28;20450;-78
2024/02/15 06:42:07;;;;;;;20.87;10.00;;;;;;;10.06;100.00;101533.56;5053504;28;20055;-85
2024/02/15 06:44:33;;;;;;;21.40;10.85;;;;;;;10.06;100.00;101517.63;5053293;28;20307;-83
2024/02/15 06:46:59;;;;;;;22.83;10.77;;;;;;;10.06;100.00;101516.75;5053508;28;20098;-83
2024/02/15 06:49:25;;;;;;;17.98;9.98;;;;;;;10.07;100.00;101513.13;5053177;28;20419;-83
2024/02/15 06:51:50;;;;;;;19.27;10.70;;;;;;;10.05;100.00;101513.25;5053715;28;20037;-85
2024/02/15 06:54:18;;;;;;;16.15;9.13;;;;;;;10.09;100.00;101518.34;5053181;28;20029;-86
2024/02/15 06:56:46;;;;;;;17.70;9.63;;;;;;;10.07;100.00;101527.25;5053257;28;20037;-87
2024/02/15 06:59:14;;;;;;;16.00;9.95;;;;;;;10.07;100.00;101540.56;5053097;28;20032;-87
2024/02/15 07:01:41;;;;;;;23.23;10.40;;;;;;;10.09;100.00;101548.44;5052119;28;20033;-78
2024/02/15 07:04:08;;;;;;;20.27;10.93;;;;;;;10.10;100.00;101551.94;5053445;28;20033;-87
2024/02/15 07:06:34;;;;;;;18.60;10.48;;;;;;;10.09;100.00;101550.25;5052383;28;20451;-87
2024/02/15 07:09:00;;;;;;;20.88;11.63;;;;;;;10.08;100.00;101546.75;5052927;28;20080;-86
2024/02/15 07:11:25;;;;;;;19.25;11.63;;;;;;;10.09;100.00;101543.13;5053289;28;20033;-84
2024/02/15 07:13:54;;;;;;;21.60;11.98;;;;;;;10.07;100.00;101547.69;5052920;28;20087;-86
2024/02/15 07:16:19;;;;;;;22.00;11.00;;;;;;;10.07;100.00;101540.56;5052778;28;20463;-84
2024/02/15 07:18:46;;;;;;;20.77;11.38;;;;;;;10.06;100.00;101535.38;5052825;28;20039;-80
2024/02/15 07:21:13;;;;;;;28.58;11.10;;;;;;;10.07;100.00;101526.44;5052652;28;20116;-87
2024/02/15 07:23:41;;;;;;;26.27;11.65;;;;;;;10.07;100.00;101540.56;5053032;28;20091;-87
2024/02/15 07:26:07;;;;;;;22.73;11.73;;;;;;;10.08;100.00;101528.13;5053097;28;20117;-86
2024/02/15 07:28:32;;;;;;;31.23;12.70;;;;;;;10.09;100.00;101524.53;5052669;28;20443;-84
2024/02/15 07:31:00;;;;;;;25.40;12.93;;;;;;;10.08;100.00;101525.47;5034402;28;20521;-84
2024/02/15 07:33:25;;;;;;;25.83;13.65;;;;;;;10.09;100.00;101527.19;5053260;28;20091;-84
2024/02/15 07:35:51;;;;;;;26.13;14.10;;;;;;;10.10;100.00;101525.34;5052306;28;20044;-84
2024/02/15 07:38:17;;;;;;;29.65;12.57;;;;;;;10.10;100.00;101528.84;5052822;28;20111;-85
2024/02/15 07:40:43;;;;;;;27.90;13.52;;;;;;;10.09;100.00;101535.16;5052771;28;20094;-85
2024/02/15 07:43:09;;;;;;;25.90;13.00;;;;;;;10.10;100.00;101525.34;5052356;28;20367;-85
2024/02/15 07:45:37;;;;;;;20.85;12.85;;;;;;;10.11;100.00;101524.41;5052361;28;20086;-86
2024/02/15 07:48:04;;;;;;;28.25;12.82;;;;;;;10.10;100.00;101512.91;5052381;28;20105;-86
2024/02/15 07:50:30;;;;;;;25.13;13.23;;;;;;;10.12;100.00;101515.44;5052297;28;20033;-87
2024/02/15 07:52:56;;;;;;;27.35;13.55;;;;;;;10.15;100.00;101523.16;5052291;28;20086;-87
2024/02/15 07:55:21;;;;;;;39.08;14.25;;;;;;;10.15;100.00;101521.38;5052071;28;20036;-87
2024/02/15 07:57:48;;;;;;;30.48;14.23;;;;;;;10.15;100.00;101508.09;5050796;28;20467;-84
2024/02/15 08:00:16;;;;;;;29.30;14.70;;;;;;;10.15;100.00;101502.75;5051989;28;20029;-86
2024/02/15 08:02:45;;;;;;;25.90;13.68;;;;;;;10.16;100.00;101520.38;5051910;28;20036;-86
2024/02/15 08:05:11;;;;;;;29.65;13.73;;;;;;;10.18;100.00;101517.59;5050148;28;20040;-88
2024/02/15 08:07:47;;;;;;;30.05;13.48;;;;;;;10.18;100.00;101518.47;5051899;28;20029;-88
2024/02/15 08:10:13;;;;;;;29.08;13.63;;;;;;;10.17;100.00;101511.47;5052049;28;20072;-88
2024/02/15 08:12:43;;;;;;;27.58;13.68;;;;;;;10.19;100.00;101521.97;5051829;28;20048;-88
2024/02/15 08:15:13;;;;;;;30.80;13.32;;;;;;;10.20;100.00;101523.69;5052165;28;20244;-87
2024/02/15 08:17:45;;;;;;;27.42;13.32;;;;;;;10.20;100.00;101519.19;5051831;28;20057;-87
2024/02/15 08:20:11;;;;;;;29.15;13.18;;;;;;;10.21;100.00;101520.03;5051687;28;20041;-87
2024/02/15 08:22:39;;;;;;;33.22;14.52;;;;;;;10.23;100.00;101515.47;5051345;28;20033;-87
2024/02/15 08:25:09;;;;;;;28.10;14.57;;;;;;;10.24;100.00;101511.84;5051541;28;20025;-87
2024/02/15 08:27:40;;;;;;;28.85;14.40;;;;;;;10.29;100.00;101520.28;5051791;28;20033;-88
2024/02/15 08:30:08;;;;;;;32.63;14.60;;;;;;;10.31;100.00;101517.50;5051693;28;20033;-86
2024/02/15 08:32:33;;;;;;;31.27;15.52;;;;;;;10.34;100.00;101523.44;5051145;28;20081;-88
2024/02/15 08:34:59;;;;;;;29.60;15.13;;;;;;;10.34;100.00;101520.78;5051394;28;20045;-87
2024/02/15 08:37:24;;;;;;;30.67;14.93;;;;;;;10.36;100.00;101516.22;5051229;28;20375;-86
2024/02/15 08:39:50;;;;;;;22.58;14.60;;;;;;;10.40;100.00;101515.00;5050564;28;20068;-86
2024/02/15 08:42:16;;;;;;;25.30;13.05;;;;;;;10.41;100.00;101518.50;5051833;28;20033;-87
2024/02/15 08:44:41;;;;;;;29.63;13.52;;;;;;;10.38;100.00;101519.59;5052381;28;20036;-86
2024/02/15 08:47:06;;;;;;;32.78;13.57;;;;;;;10.38;100.00;101526.72;5051389;28;20040;-88
2024/02/15 08:49:32;;;;;;;31.30;11.82;;;;;;;10.37;100.00;101515.22;5050513;28;20082;-87
2024/02/15 08:51:58;;;;;;;40.50;13.15;;;;;;;10.38;100.00;101516.09;5051539;28;20040;-87
2024/02/15 08:54:25;;;;;;;23.17;11.88;;;;;;;10.39;100.00;101509.81;5049514;28;20182;-87
2024/02/15 08:56:51;;;;;;;32.58;12.80;;;;;;;10.40;100.00;101503.50;5050620;28;20033;-87
2024/02/15 08:59:17;;;;;;;23.88;12.23;;;;;;;10.39;100.00;101501.84;5049581;28;20048;-88
2024/02/15 09:01:43;;;;;;;26.33;12.23;;;;;;;10.42;100.00;101504.25;5050557;28;20037;-88
2024/02/15 09:04:08;;;;;;;27.35;12.15;;;;;;;10.42;100.00;101501.59;5049799;28;20110;-88
2024/02/15 09:06:34;;;;;;;29.20;11.93;;;;;;;10.44;100.00;101493.47;5050865;28;20063;-88
2024/02/15 09:08:59;;;;;;;28.60;12.02;;;;;;;10.46;100.00;101499.53;5051182;28;20072;-86
2024/02/15 09:11:34;;;;;;;27.38;11.75;;;;;;;10.49;100.00;101493.94;5050344;28;20095;-83
2024/02/15 09:14:00;;;;;;;31.23;11.38;;;;;;;10.53;100.00;101496.25;5050854;28;20442;-87
2024/02/15 09:16:25;;;;;;;21.45;11.13;;;;;;;10.55;100.00;101504.09;5051020;28;20120;-87
2024/02/15 09:18:50;;;;;;;25.55;10.93;;;;;;;10.58;100.00;101501.19;5051615;28;20068;-88
2024/02/15 09:21:16;;;;;;;21.98;10.23;;;;;;;10.62;100.00;101507.13;5050710;28;20119;-87
2024/02/15 09:23:41;;;;;;;24.63;9.98;;;;;;;10.69;100.00;101495.00;5050713;28;20029;-86
2024/02/15 09:26:09;;;;;;;22.38;10.60;;;;;;;10.70;100.00;101496.69;5049460;28;20029;-87
2024/02/15 09:28:35;;;;;;;20.08;10.10;;;;;;;10.69;100.00;101497.66;5050505;28;20033;-85
2024/02/15 09:31:01;;;;;;;20.98;9.88;;;;;;;10.65;100.00;101491.75;5054441;28;20033;-86
2024/02/15 09:33:27;;;;;;;22.15;9.45;;;;;;;10.70;100.00;101500.22;5054541;28;20508;-87
2024/02/15 09:35:55;;;;;;;24.23;10.30;;;;;;;10.69;100.00;101498.53;5054993;28;20059;-87
2024/02/15 09:38:21;;;;;;;28.38;10.32;;;;;;;10.73;100.00;101499.13;5053727;28;20099;-87
2024/02/15 09:40:50;;;;;;;21.35;10.20;;;;;;;10.80;100.00;101500.31;5054881;28;20098;-86
2024/02/15 09:43:16;;;;;;;27.65;11.75;;;;;;;10.79;100.00;101500.44;5054664;28;20044;-84
2024/02/15 09:45:41;;;;;;;28.35;11.02;;;;;;;10.88;100.00;101505.88;5054448;28;20161;-87
2024/02/15 09:48:10;;;;;;;19.55;10.30;;;;;;;10.94;100.00;101501.84;5054664;28;20343;-86
2024/02/15 09:50:38;;;;;;;26.05;10.95;;;;;;;10.96;100.00;101502.59;5053185;28;20486;-85
2024/02/15 09:53:06;;;;;;;20.42;9.65;;;;;;;10.96;100.00;101502.59;5054499;28;20036;-86
2024/02/15 09:55:34;;;;;;;23.38;10.52;;;;;;;10.99;100.00;101506.78;5054287;28;20090;-86
2024/02/15 09:58:00;;;;;;;21.42;10.32;;;;;;;11.04;100.00;101504.59;5054613;28;20098;-85
2024/02/15 10:00:26;;;;;;;22.42;10.27;;;;;;;11.07;100.00;101510.50;5052606;28;20029;-84
2024/02/15 10:02:52;;;;;;;20.80;9.57;;;;;;;11.08;100.00;101512.22;5052985;28;20040;-86
2024/02/15 10:05:18;;;;;;;18.80;8.80;;;;;;;11.10;100.00;101504.94;5054315;28;20025;-85
2024/02/15 10:07:45;;;;;;;19.63;9.90;;;;;;;11.10;100.00;101506.75;5053994;28;20090;-86
2024/02/15 10:10:21;;;;;;;20.30;8.85;;;;;;;11.10;100.00;101506.75;5054245;28;20041;-84
2024/02/15 10:12:51;;;;;;;17.05;8.70;;;;;;;11.14;100.00;101504.69;5053863;28;20166;-83
2024/02/15 10:15:37;;;;;;;15.20;7.63;;;;;;;11.17;100.00;101504.47;5052678;28;20339;-84
2024/02/15 10:18:13;;;;;;;18.85;8.88;;;;;;;11.23;100.00;101501.28;5053727;28;20332;-84
2024/02/15 10:20:46;;;;;;;19.75;8.57;;;;;;;11.35;100.00;101496.75;5054388;28;20031;-85
2024/02/15 10:23:14;;;;;;;21.08;9.38;;;;;;;11.41;100.00;101498.91;5054419;28;20115;-83
2024/02/15 10:25:40;;;;;;;21.88;9.05;;;;;;;11.56;100.00;101499.44;5053735;28;20098;-83
2024/02/15 10:28:10;;;;;;;17.55;8.48;;;;;;;11.55;100.00;101495.91;5054366;28;20112;-79
2024/02/15 10:30:37;;;;;;;18.60;9.02;;;;;;;11.64;100.00;101496.94;5052393;28;20375;-82
2024/02/15 10:33:03;;;;;;;19.40;8.57;;;;;;;11.74;100.00;101494.38;5052000;28;20367;-81
2024/02/15 10:35:29;;;;;;;21.88;9.77;;;;;;;11.87;100.00;101499.47;5053800;28;20037;-84
2024/02/15 10:38:11;;;;;;;21.90;9.05;;;;;;;12.01;100.00;101487.66;5053820;28;20429;-81
2024/02/15 10:40:37;;;;;;;15.07;9.23;;;;;;;11.96;100.00;101488.06;5051920;28;20057;-82
2024/02/15 10:43:04;;;;;;;16.63;10.15;;;;;;;12.01;100.00;101479.66;5053338;28;20128;-83
2024/02/15 10:45:31;;;;;;;16.45;8.73;;;;;;;12.13;100.00;101478.59;5053182;28;20336;-83
2024/02/15 10:47:57;;;;;;;19.15;10.25;;;;;;;12.24;100.00;101465.19;5053457;28;20037;-85
2024/02/15 10:50:23;;;;;;;16.08;8.45;;;;;;;12.31;100.00;101462.81;5053241;28;20435;-85
2024/02/15 10:52:55;;;;;;;16.60;7.50;;;;;;;12.49;100.00;101463.81;5053487;28;20159;-86
2024/02/15 10:55:48;;;;;;;15.15;7.90;;;;;;;12.58;100.00;101456.00;5053565;28;20029;-84
2024/02/15 10:58:19;;;;;;;20.83;7.95;;;;;;;12.63;100.00;101445.72;5053073;28;20039;-85
2024/02/15 11:00:47;;;;;;;14.25;6.90;;;;;;;12.76;100.00;101450.81;5053489;28;20135;-84
2024/02/15 11:03:20;;;;;;;14.20;7.07;;;;;;;12.80;100.00;101437.06;5052954;28;20051;-81
2024/02/15 11:05:46;;;;;;;14.80;6.20;;;;;;;12.91;100.00;101443.25;5053034;28;20021;-84
2024/02/15 11:08:12;;;;;;;11.85;5.60;;;;;;;12.99;100.00;101441.56;5051811;28;20056;-87
2024/02/15 11:10:43;;;;;;;10.70;5.50;;;;;;;13.03;100.00;101439.44;5052951;28;20064;-83
2024/02/15 11:13:09;;;;;;;11.03;5.60;;;;;;;13.15;100.00;101441.03;5035577;28;20032;-85
2024/02/15 11:15:49;;;;;;;8.52;4.65;;;;;;;13.23;100.00;101429.63;5052801;28;20275;-85